createdAt,value
2023-04-24T00:01:43.942Z,13.73
2023-04-24T00:04:12.277Z,11.27
2023-04-24T00:06:39.765Z,9.43
2023-04-24T00:09:06.863Z,11.23
2023-04-24T00:11:34.777Z,11.32
2023-04-24T00:14:01.893Z,10.05
2023-04-24T00:16:29.517Z,11.00
2023-04-24T00:18:56.685Z,9.00
2023-04-24T00:21:26.690Z,10.27
2023-04-24T00:23:54.526Z,9.10
2023-04-24T00:26:21.951Z,10.27
2023-04-24T00:28:49.067Z,8.70
2023-04-24T00:31:16.493Z,9.18
2023-04-24T00:33:43.699Z,10.82
2023-04-24T00:36:11.496Z,11.02
2023-04-24T00:38:38.613Z,10.80
2023-04-24T00:41:06.042Z,10.40
2023-04-24T00:43:33.176Z,10.70
2023-04-24T00:46:02.759Z,11.50
2023-04-24T00:48:30.526Z,9.50
2023-04-24T00:50:59.844Z,11.10
2023-04-24T00:53:26.991Z,11.77
2023-04-24T00:55:54.992Z,16.33
2023-04-24T00:58:22.232Z,11.73
2023-04-24T01:00:54.088Z,10.40
2023-04-24T01:03:23.792Z,15.20
2023-04-24T01:05:52.064Z,11.65
2023-04-24T01:08:21.070Z,9.50
2023-04-24T01:10:49.666Z,13.05
2023-04-24T01:13:16.832Z,13.38
2023-04-24T01:15:46.399Z,9.00
2023-04-24T01:18:14.129Z,14.13
2023-04-24T01:20:44.088Z,11.93
2023-04-24T01:23:12.504Z,10.77
2023-04-24T01:25:40.566Z,11.55
2023-04-24T01:28:07.861Z,10.45
2023-04-24T01:30:35.271Z,10.70
2023-04-24T01:33:02.642Z,9.55
2023-04-24T01:35:30.246Z,10.73
2023-04-24T01:37:57.370Z,10.68
2023-04-24T01:40:26.078Z,10.63
2023-04-24T01:42:53.965Z,9.55
2023-04-24T01:45:21.409Z,16.02
2023-04-24T01:47:49.975Z,10.50
2023-04-24T01:50:18.881Z,14.50
2023-04-24T01:52:46.379Z,11.52
2023-04-24T01:55:13.771Z,8.82
2023-04-24T01:57:41.314Z,9.85
2023-04-24T02:00:09.492Z,10.75
2023-04-24T02:02:44.917Z,9.98
2023-04-24T02:05:14.536Z,9.07
2023-04-24T02:07:41.544Z,11.45
2023-04-24T02:10:10.805Z,11.25
2023-04-24T02:12:42.620Z,10.82
2023-04-24T02:15:10.425Z,13.02
2023-04-24T02:17:38.621Z,9.43
2023-04-24T02:20:07.693Z,10.48
2023-04-24T02:22:34.875Z,11.63
2023-04-24T02:25:03.514Z,10.50
2023-04-24T02:27:31.278Z,10.88
2023-04-24T02:29:58.646Z,11.98
2023-04-24T02:32:25.763Z,12.68
2023-04-24T02:34:53.260Z,11.73
2023-04-24T02:37:20.580Z,9.93
2023-04-24T02:39:47.938Z,13.60
2023-04-24T02:42:15.093Z,10.88
2023-04-24T02:44:42.649Z,11.05
2023-04-24T02:47:09.978Z,15.60
2023-04-24T02:49:37.341Z,12.75
2023-04-24T02:52:04.551Z,9.57
2023-04-24T02:54:31.938Z,12.18
2023-04-24T02:56:59.108Z,10.82
2023-04-24T02:59:28.265Z,11.20
2023-04-24T03:01:55.863Z,9.82
2023-04-24T03:04:24.143Z,14.00
2023-04-24T03:06:53.785Z,14.38
2023-04-24T03:09:24.805Z,14.30
2023-04-24T03:11:52.083Z,13.30
2023-04-24T03:14:19.426Z,15.10
2023-04-24T03:16:46.424Z,13.63
2023-04-24T03:19:13.879Z,15.60
2023-04-24T03:21:55.840Z,11.77
2023-04-24T03:24:23.702Z,12.40
2023-04-24T03:26:51.449Z,10.68
2023-04-24T03:29:34.824Z,14.95
2023-04-24T03:32:02.632Z,15.40
2023-04-24T03:34:29.984Z,17.30
2023-04-24T03:36:58.231Z,12.30
2023-04-24T03:39:26.404Z,14.55
2023-04-24T03:41:56.877Z,13.93
2023-04-24T03:44:33.550Z,10.68
2023-04-24T03:47:01.201Z,12.82
2023-04-24T03:49:28.736Z,20.15
2023-04-24T03:51:56.161Z,16.55
2023-04-24T03:54:26.418Z,10.73
2023-04-24T03:56:54.835Z,12.50
2023-04-24T03:59:22.236Z,14.23
2023-04-24T04:02:00.567Z,11.52
2023-04-24T04:04:28.736Z,13.07
2023-04-24T04:06:56.025Z,15.95
2023-04-24T04:09:25.333Z,12.05
2023-04-24T04:11:52.431Z,12.98
2023-04-24T04:14:19.845Z,16.90
2023-04-24T04:16:48.936Z,15.25
2023-04-24T04:19:16.368Z,12.07
2023-04-24T04:21:43.740Z,12.05
2023-04-24T04:24:25.158Z,10.93
2023-04-24T04:26:53.597Z,14.85
2023-04-24T04:29:27.073Z,12.90
2023-04-24T04:31:54.891Z,11.88
2023-04-24T04:34:23.630Z,10.25
2023-04-24T04:36:54.827Z,13.43
2023-04-24T04:39:42.646Z,13.85
2023-04-24T04:42:23.479Z,15.82
2023-04-24T04:44:51.862Z,10.68
2023-04-24T04:47:24.502Z,9.80
2023-04-24T04:49:53.990Z,10.85
2023-04-24T04:52:28.208Z,15.45
2023-04-24T04:55:15.794Z,13.10
2023-04-24T04:58:05.726Z,13.60
2023-04-24T05:00:36.746Z,13.52
2023-04-24T05:03:19.936Z,15.52
2023-04-24T05:05:52.879Z,12.02
2023-04-24T05:08:27.212Z,13.60
2023-04-24T05:10:56.496Z,12.10
2023-04-24T05:13:38.371Z,15.55
2023-04-24T05:16:15.980Z,15.32
2023-04-24T05:18:43.431Z,16.00
2023-04-24T05:21:14.449Z,14.02
2023-04-24T05:23:43.707Z,14.93
2023-04-24T05:26:16.735Z,12.77
2023-04-24T05:28:43.743Z,12.25
2023-04-24T05:31:13.721Z,10.77
2023-04-24T05:33:41.091Z,13.80
2023-04-24T05:36:09.015Z,12.40
2023-04-24T05:38:36.779Z,16.25
2023-04-24T05:41:04.391Z,13.93
2023-04-24T05:43:31.572Z,14.77
2023-04-24T05:45:58.997Z,16.48
2023-04-24T05:48:26.310Z,12.63
2023-04-24T05:50:53.879Z,10.23
2023-04-24T05:53:20.975Z,18.23
2023-04-24T05:55:48.842Z,16.98
2023-04-24T05:58:16.462Z,14.02
2023-04-24T06:00:45.487Z,14.52
2023-04-24T06:03:13.299Z,12.30
2023-04-24T06:05:41.971Z,13.00
2023-04-24T06:08:09.466Z,14.25
2023-04-24T06:10:40.066Z,13.23
2023-04-24T06:13:09.181Z,11.80
2023-04-24T06:15:39.916Z,12.90
2023-04-24T06:18:20.470Z,13.18
2023-04-24T06:20:49.598Z,15.45
2023-04-24T06:23:17.025Z,12.27
2023-04-24T06:25:44.382Z,14.20
2023-04-24T06:28:13.965Z,12.85
2023-04-24T06:30:42.183Z,10.75
2023-04-24T06:33:20.409Z,13.00
2023-04-24T06:35:49.555Z,12.80
2023-04-24T06:38:17.449Z,12.95
2023-04-24T06:40:45.212Z,16.80
2023-04-24T06:43:12.314Z,14.23
2023-04-24T06:45:40.864Z,12.25
2023-04-24T06:48:08.215Z,12.45
2023-04-24T06:50:36.398Z,14.25
2023-04-24T06:53:03.522Z,12.50
2023-04-24T06:55:30.958Z,13.32
2023-04-24T06:57:58.102Z,16.10
2023-04-24T07:00:25.606Z,11.13
2023-04-24T07:02:52.992Z,12.32
2023-04-24T07:05:24.438Z,11.63
2023-04-24T07:07:52.382Z,12.50
2023-04-24T07:10:19.923Z,12.80
2023-04-24T07:12:48.000Z,14.55
2023-04-24T07:15:15.562Z,14.50
2023-04-24T07:17:45.373Z,13.15
2023-04-24T07:20:15.391Z,15.88
2023-04-24T07:22:42.616Z,12.88
2023-04-24T07:25:10.317Z,10.35
2023-04-24T07:27:37.628Z,12.40
2023-04-24T07:30:06.001Z,13.43
2023-04-24T07:32:33.113Z,13.57
2023-04-24T07:35:00.641Z,15.18
2023-04-24T07:37:29.551Z,12.15
2023-04-24T07:39:56.955Z,12.07
2023-04-24T07:42:24.135Z,12.85
2023-04-24T07:44:55.004Z,11.98
2023-04-24T07:47:22.313Z,15.65
2023-04-24T07:49:49.667Z,20.88
2023-04-24T07:52:16.686Z,12.15
2023-04-24T07:54:44.197Z,16.50
2023-04-24T07:57:11.609Z,13.45
2023-04-24T07:59:38.891Z,14.10
2023-04-24T08:02:07.197Z,11.52
2023-04-24T08:04:34.865Z,11.88
2023-04-24T08:07:02.079Z,21.35
2023-04-24T08:09:29.969Z,9.45
2023-04-24T08:11:57.721Z,10.75
2023-04-24T08:14:25.139Z,9.45
2023-04-24T08:16:56.322Z,10.02
2023-04-24T08:19:26.291Z,9.80
2023-04-24T08:21:53.438Z,10.35
2023-04-24T08:24:20.856Z,15.82
2023-04-24T08:26:51.221Z,10.07
2023-04-24T08:29:18.824Z,9.13
2023-04-24T08:31:45.999Z,9.93
2023-04-24T08:34:13.940Z,8.10
2023-04-24T08:36:46.978Z,9.48
2023-04-24T08:39:15.903Z,11.73
2023-04-24T08:41:44.566Z,10.10
2023-04-24T08:44:13.804Z,9.45
2023-04-24T08:46:41.751Z,8.13
2023-04-24T08:49:09.276Z,8.82
2023-04-24T08:51:38.137Z,10.55
2023-04-24T08:54:06.286Z,9.40
2023-04-24T08:56:35.307Z,12.50
2023-04-24T08:59:03.055Z,11.15
2023-04-24T09:01:33.057Z,9.23
2023-04-24T09:04:04.851Z,11.55
2023-04-24T09:06:33.194Z,9.80
2023-04-24T09:09:04.513Z,9.18
2023-04-24T09:11:33.842Z,11.43
2023-04-24T09:14:02.252Z,8.32
2023-04-24T09:16:29.627Z,10.23
2023-04-24T09:18:57.414Z,11.85
2023-04-24T09:21:24.479Z,12.10
2023-04-24T09:24:06.792Z,8.32
2023-04-24T09:26:36.857Z,8.07
2023-04-24T09:29:05.353Z,8.57
2023-04-24T09:31:32.817Z,12.80
2023-04-24T09:34:02.902Z,13.32
2023-04-24T09:36:39.999Z,12.18
2023-04-24T09:39:09.439Z,8.03
2023-04-24T09:41:44.196Z,8.43
2023-04-24T09:44:18.582Z,10.63
2023-04-24T09:46:50.772Z,11.77
2023-04-24T09:49:25.980Z,8.35
2023-04-24T09:52:03.298Z,12.43
2023-04-24T09:54:30.889Z,8.90
2023-04-24T09:56:58.373Z,9.68
2023-04-24T09:59:25.440Z,11.18
2023-04-24T10:01:53.390Z,9.23
2023-04-24T10:04:21.318Z,11.88
2023-04-24T10:06:50.097Z,11.38
2023-04-24T10:09:18.887Z,10.77
2023-04-24T10:11:48.440Z,9.82
2023-04-24T10:14:22.003Z,9.30
2023-04-24T10:16:50.575Z,9.82
2023-04-24T10:19:21.716Z,10.73
2023-04-24T10:21:49.331Z,9.32
2023-04-24T10:24:18.890Z,8.40
2023-04-24T10:26:48.998Z,7.80
2023-04-24T10:29:18.318Z,7.70
2023-04-24T10:31:47.790Z,6.20
2023-04-24T10:34:17.206Z,11.00
2023-04-24T10:36:57.935Z,7.85
2023-04-24T10:39:27.962Z,7.78
2023-04-24T10:41:59.437Z,8.60
2023-04-24T10:44:36.576Z,7.95
2023-04-24T10:47:04.740Z,8.63
2023-04-24T10:49:33.127Z,8.05
2023-04-24T10:52:08.083Z,7.05
2023-04-24T10:54:48.593Z,9.48
2023-04-24T10:57:19.575Z,10.43
2023-04-24T10:59:47.783Z,7.78
2023-04-24T11:02:19.267Z,11.02
2023-04-24T11:04:47.376Z,9.45
2023-04-24T11:07:14.955Z,10.48
2023-04-24T11:09:44.530Z,7.65
2023-04-24T11:12:15.036Z,9.80
2023-04-24T11:15:11.736Z,12.18
2023-04-24T11:17:43.029Z,11.88
2023-04-24T11:20:28.018Z,8.13
2023-04-24T11:22:56.719Z,9.45
2023-04-24T11:25:24.081Z,9.73
2023-04-24T11:28:03.603Z,9.65
2023-04-24T11:30:32.092Z,11.50
2023-04-24T11:33:08.851Z,9.63
2023-04-24T11:40:37.946Z,10.77
2023-04-24T11:43:07.665Z,6.93
2023-04-24T11:45:35.344Z,7.35
2023-04-24T11:48:04.496Z,14.25
2023-04-24T11:50:31.748Z,18.58
2023-04-24T11:53:00.126Z,10.10
2023-04-24T11:55:28.866Z,9.75
2023-04-24T11:57:58.626Z,6.90
2023-04-24T12:00:28.263Z,7.88
2023-04-24T12:03:10.193Z,9.38
2023-04-24T12:05:37.978Z,6.90
2023-04-24T12:08:06.215Z,7.15
2023-04-24T12:10:35.705Z,7.53
2023-04-24T12:13:03.623Z,10.77
2023-04-24T12:15:31.246Z,8.35
2023-04-24T12:17:58.676Z,7.68
2023-04-24T12:20:31.508Z,7.70
2023-04-24T12:23:01.096Z,7.47
2023-04-24T12:25:33.662Z,8.93
2023-04-24T12:28:04.628Z,6.78
2023-04-24T12:30:37.304Z,10.30
2023-04-24T12:33:04.882Z,8.48
2023-04-24T12:35:34.818Z,6.78
2023-04-24T12:38:10.941Z,9.43
2023-04-24T12:40:38.125Z,7.00
2023-04-24T12:43:20.050Z,7.38
2023-04-24T12:45:48.665Z,7.10
2023-04-24T12:48:16.232Z,9.20
2023-04-24T12:50:46.407Z,9.65
2023-04-24T12:53:14.945Z,8.00
2023-04-24T12:55:42.022Z,8.77
2023-04-24T12:58:09.470Z,7.00
2023-04-24T13:00:37.282Z,7.57
2023-04-24T13:03:05.056Z,7.80
2023-04-24T13:05:32.335Z,6.22
2023-04-24T13:07:59.668Z,6.43
2023-04-24T13:10:26.861Z,6.80
2023-04-24T13:12:55.303Z,7.53
2023-04-24T13:15:22.605Z,10.15
2023-04-24T13:17:50.693Z,11.15
2023-04-24T13:20:18.609Z,7.38
2023-04-24T13:22:46.363Z,7.53
2023-04-24T13:25:13.439Z,9.23
2023-04-24T13:27:40.918Z,9.45
2023-04-24T13:30:08.635Z,6.10
2023-04-24T13:32:36.718Z,6.20
2023-04-24T13:35:04.472Z,6.90
2023-04-24T13:37:31.886Z,10.02
2023-04-24T13:39:59.052Z,8.18
2023-04-24T13:42:26.642Z,10.70
2023-04-24T13:44:55.108Z,6.38
2023-04-24T13:47:22.538Z,7.70
2023-04-24T13:49:49.724Z,6.07
2023-04-24T13:52:17.162Z,7.70
2023-04-24T13:54:44.433Z,8.63
2023-04-24T13:57:11.943Z,7.38
2023-04-24T13:59:41.875Z,10.27
2023-04-24T14:02:09.391Z,7.43
2023-04-24T14:04:37.050Z,10.38
2023-04-24T14:07:04.635Z,8.70
2023-04-24T14:09:31.742Z,9.48
2023-04-24T14:11:59.113Z,8.48
2023-04-24T14:14:26.427Z,7.07
2023-04-24T14:16:53.820Z,7.45
2023-04-24T14:19:21.031Z,11.30
2023-04-24T14:21:48.442Z,9.27
2023-04-24T14:24:16.740Z,8.20
2023-04-24T14:26:44.068Z,5.55
2023-04-24T14:29:15.163Z,12.98
2023-04-24T14:31:43.580Z,7.35
2023-04-24T14:34:11.114Z,6.70
2023-04-24T14:36:38.678Z,7.65
2023-04-24T14:39:08.089Z,6.93
2023-04-24T14:41:37.040Z,12.43
2023-04-24T14:44:05.005Z,6.80
2023-04-24T14:46:32.742Z,7.20
2023-04-24T14:48:59.956Z,9.95
2023-04-24T14:51:27.875Z,7.03
2023-04-24T14:53:55.089Z,7.35
2023-04-24T14:56:22.490Z,8.80
2023-04-24T14:58:49.806Z,7.65
2023-04-24T15:01:18.125Z,6.32
2023-04-24T15:03:46.182Z,7.80
2023-04-24T15:06:13.947Z,9.90
2023-04-24T15:08:43.986Z,7.70
2023-04-24T15:11:11.684Z,7.00
2023-04-24T15:13:39.282Z,7.50
2023-04-24T15:16:06.951Z,8.45
2023-04-24T15:18:33.975Z,8.10
2023-04-24T15:21:01.456Z,8.35
2023-04-24T15:23:28.505Z,6.68
2023-04-24T15:25:55.959Z,5.60
2023-04-24T15:28:23.148Z,7.70
2023-04-24T15:30:50.830Z,6.90
2023-04-24T15:33:17.955Z,6.68
2023-04-24T15:35:45.645Z,6.75
2023-04-24T15:38:12.822Z,7.43
2023-04-24T15:40:40.264Z,5.18
2023-04-24T15:43:07.362Z,6.53
2023-04-24T15:45:35.303Z,5.07
2023-04-24T15:48:02.617Z,8.40
2023-04-24T15:50:30.069Z,5.93
2023-04-24T15:52:57.289Z,7.65
2023-04-24T15:55:25.285Z,8.05
2023-04-24T15:57:52.429Z,6.85
2023-04-24T16:00:21.392Z,7.63
2023-04-24T16:02:50.497Z,5.90
2023-04-24T16:05:19.959Z,5.45
2023-04-24T16:07:47.042Z,7.00
2023-04-24T16:10:14.398Z,6.28
2023-04-24T16:12:41.523Z,5.80
2023-04-24T16:15:09.763Z,6.00
2023-04-24T16:17:36.906Z,5.97
2023-04-24T16:20:05.368Z,6.22
2023-04-24T16:22:32.468Z,6.75
2023-04-24T16:25:00.023Z,6.80
2023-04-24T16:27:29.820Z,7.53
2023-04-24T16:29:57.416Z,6.70
2023-04-24T16:32:24.489Z,6.25
2023-04-24T16:34:52.248Z,9.30
2023-04-24T16:37:20.413Z,9.45
2023-04-24T16:39:47.778Z,10.15
2023-04-24T16:42:15.738Z,10.05
2023-04-24T16:44:43.520Z,11.57
2023-04-24T16:47:13.452Z,11.30
2023-04-24T16:49:41.972Z,12.95
2023-04-24T16:52:09.423Z,11.65
2023-04-24T16:54:36.983Z,12.75
2023-04-24T16:57:05.082Z,9.82
2023-04-24T16:59:35.668Z,10.85
2023-04-24T17:02:02.807Z,12.57
2023-04-24T17:04:32.301Z,11.60
2023-04-24T17:06:59.619Z,14.90
2023-04-24T17:09:27.362Z,11.80
2023-04-24T17:11:55.043Z,9.32
2023-04-24T17:14:24.055Z,11.95
2023-04-24T17:16:51.404Z,10.55
2023-04-24T17:19:19.108Z,14.20
2023-04-24T17:21:46.440Z,11.93
2023-04-24T17:24:14.132Z,12.65
2023-04-24T17:26:41.316Z,14.15
2023-04-24T17:29:08.748Z,12.65
2023-04-24T17:31:36.054Z,11.90
2023-04-24T17:34:03.978Z,13.85
2023-04-24T17:36:31.782Z,12.63
2023-04-24T17:38:59.333Z,13.68
2023-04-24T17:41:26.828Z,14.95
2023-04-24T17:43:54.287Z,13.20
2023-04-24T17:46:21.498Z,13.43
2023-04-24T17:48:49.842Z,14.13
2023-04-24T17:51:17.071Z,13.57
2023-04-24T17:53:44.698Z,13.38
2023-04-24T17:56:11.895Z,14.43
2023-04-24T17:58:40.228Z,13.43
2023-04-24T18:01:07.343Z,14.60
2023-04-24T18:03:34.956Z,14.48
2023-04-24T18:06:02.349Z,15.32
2023-04-24T18:08:29.620Z,16.25
2023-04-24T18:10:57.867Z,18.35
2023-04-24T18:13:25.399Z,17.38
2023-04-24T18:15:52.667Z,17.77
2023-04-24T18:18:20.119Z,18.55
2023-04-24T18:20:47.175Z,18.17
2023-04-24T18:23:14.536Z,14.80
2023-04-24T18:25:41.672Z,14.82
2023-04-24T18:28:09.154Z,12.82
2023-04-24T18:30:36.968Z,11.55
2023-04-24T18:33:04.736Z,13.82
2023-04-24T18:35:32.041Z,15.27
2023-04-24T18:37:59.909Z,11.82
2023-04-24T18:40:27.147Z,12.68
2023-04-24T18:42:56.461Z,13.40
2023-04-24T18:45:23.654Z,15.10
2023-04-24T18:47:51.079Z,12.27
2023-04-24T18:50:19.544Z,13.98
2023-04-24T18:52:46.943Z,12.18
2023-04-24T18:55:14.013Z,12.07
2023-04-24T18:57:41.289Z,17.33
2023-04-24T19:00:08.881Z,12.95
2023-04-24T19:02:36.806Z,12.93
2023-04-24T19:05:04.313Z,11.00
2023-04-24T19:07:31.968Z,13.60
2023-04-24T19:09:59.057Z,13.60
2023-04-24T19:12:26.616Z,13.95
2023-04-24T19:14:56.063Z,12.30
2023-04-24T19:17:25.377Z,10.80
2023-04-24T19:19:52.615Z,14.13
2023-04-24T19:22:23.265Z,12.85
2023-04-24T19:24:50.574Z,16.17
2023-04-24T19:27:17.990Z,12.65
2023-04-24T19:29:45.051Z,15.55
2023-04-24T19:32:12.471Z,12.73
2023-04-24T19:34:40.626Z,20.05
2023-04-24T19:37:08.377Z,13.93
2023-04-24T19:39:35.645Z,17.55
2023-04-24T19:42:07.086Z,14.23
2023-04-24T19:44:34.816Z,16.65
2023-04-24T19:47:02.365Z,19.42
2023-04-24T19:49:29.636Z,16.17
2023-04-24T19:51:56.996Z,14.65
2023-04-24T19:54:24.779Z,13.88
2023-04-24T19:56:52.109Z,15.05
2023-04-24T19:59:19.152Z,16.85
2023-04-24T20:01:47.374Z,16.98
2023-04-24T20:04:14.761Z,18.50
2023-04-24T20:06:42.273Z,19.45
2023-04-24T20:09:10.068Z,14.07
2023-04-24T20:11:37.539Z,16.55
2023-04-24T20:14:06.181Z,14.63
2023-04-24T20:16:33.703Z,15.50
2023-04-24T20:19:00.857Z,13.88
2023-04-24T20:21:28.817Z,15.40
2023-04-24T20:23:56.152Z,12.68
2023-04-24T20:26:23.623Z,12.70
2023-04-24T20:28:50.952Z,14.20
2023-04-24T20:31:19.768Z,12.50
2023-04-24T20:33:46.982Z,15.70
2023-04-24T20:36:14.282Z,11.15
2023-04-24T20:38:41.320Z,13.85
2023-04-24T20:41:10.033Z,11.23
2023-04-24T20:43:37.401Z,13.80
2023-04-24T20:46:05.118Z,11.50
2023-04-24T20:48:32.202Z,11.50
2023-04-24T20:50:59.666Z,10.23
2023-04-24T20:53:26.739Z,10.23
2023-04-24T20:55:54.159Z,13.35
2023-04-24T20:58:22.984Z,12.55
2023-04-24T21:00:51.461Z,11.55
2023-04-24T21:03:18.697Z,12.63
2023-04-24T21:05:46.251Z,10.82
2023-04-24T21:08:13.627Z,11.95
2023-04-24T21:10:41.023Z,9.70
2023-04-24T21:13:08.418Z,12.10
2023-04-24T21:15:35.901Z,11.18
2023-04-24T21:18:03.573Z,11.55
2023-04-24T21:20:31.953Z,11.48
2023-04-24T21:22:59.125Z,9.13
2023-04-24T21:25:27.050Z,16.33
2023-04-24T21:27:54.914Z,10.98
2023-04-24T21:30:25.413Z,17.77
2023-04-24T21:32:53.093Z,11.98
2023-04-24T21:35:20.678Z,10.10
2023-04-24T21:37:47.775Z,11.40
2023-04-24T21:40:16.067Z,10.93
2023-04-24T21:42:43.437Z,10.65
2023-04-24T21:45:11.901Z,14.77
2023-04-24T21:47:39.300Z,9.60
2023-04-24T21:50:07.489Z,13.07
2023-04-24T21:52:34.749Z,11.93
2023-04-24T21:55:02.957Z,9.45
2023-04-24T21:57:30.281Z,13.50
2023-04-24T21:59:57.915Z,10.90
2023-04-24T22:02:25.268Z,9.85
2023-04-24T22:04:53.230Z,9.70
2023-04-24T22:07:20.601Z,14.95
2023-04-24T22:09:48.410Z,9.55
2023-04-24T22:12:16.275Z,10.93
2023-04-24T22:14:43.887Z,10.60
2023-04-24T22:17:15.200Z,10.20
2023-04-24T22:19:43.594Z,9.95
2023-04-24T22:22:10.804Z,11.82
2023-04-24T22:24:38.305Z,11.05
2023-04-24T22:27:06.072Z,10.73
2023-04-24T22:29:33.724Z,8.73
2023-04-24T22:32:01.196Z,8.68
2023-04-24T22:34:28.644Z,10.23
2023-04-24T22:36:56.500Z,12.90
2023-04-24T22:39:23.907Z,9.40
2023-04-24T22:41:51.462Z,8.20
2023-04-24T22:44:19.132Z,12.27
2023-04-24T22:46:47.848Z,12.63
2023-04-24T22:49:16.336Z,8.95
2023-04-24T22:51:44.595Z,8.50
2023-04-24T22:54:11.909Z,10.63
2023-04-24T22:56:39.115Z,9.35
2023-04-24T22:59:06.652Z,12.23
2023-04-24T23:01:34.103Z,12.10
2023-04-24T23:04:01.890Z,9.73
2023-04-24T23:06:29.153Z,9.80
2023-04-24T23:08:56.558Z,9.85
2023-04-24T23:11:23.703Z,9.40
2023-04-24T23:13:51.444Z,10.23
2023-04-24T23:16:18.537Z,8.48
2023-04-24T23:18:45.937Z,7.63
2023-04-24T23:21:13.448Z,10.85
2023-04-24T23:23:41.211Z,10.15
2023-04-24T23:26:09.395Z,9.88
2023-04-24T23:28:37.565Z,10.98
2023-04-24T23:31:04.843Z,11.00
2023-04-24T23:33:32.390Z,14.27
2023-04-24T23:36:00.138Z,11.15
2023-04-24T23:38:31.954Z,8.43
2023-04-24T23:41:03.972Z,10.30
2023-04-24T23:43:31.696Z,9.57
2023-04-24T23:45:58.768Z,10.18
2023-04-24T23:48:26.282Z,9.15
2023-04-24T23:50:53.590Z,11.52
2023-04-24T23:53:21.437Z,9.65
2023-04-24T23:55:48.710Z,10.75
2023-04-24T23:58:15.986Z,8.25
